sensor_id;sensor_type;location;lat;lon;timestamp;temperature;humidity
22742;DHT22;11538;48.884;8.696;2024-01-30T00:00:26;4.40;99.90
22742;DHT22;11538;48.884;8.696;2024-01-30T00:02:53;4.40;99.90
22742;DHT22;11538;48.884;8.696;2024-01-30T00:05:20;4.40;99.90
22742;DHT22;11538;48.884;8.696;2024-01-30T00:07:47;4.40;99.90
22742;DHT22;11538;48.884;8.696;2024-01-30T00:10:14;4.50;99.90
22742;DHT22;11538;48.884;8.696;2024-01-30T00:12:41;4.40;99.90
22742;DHT22;11538;48.884;8.696;2024-01-30T00:15:08;4.40;99.90
22742;DHT22;11538;48.884;8.696;2024-01-30T00:17:37;4.40;99.90
22742;DHT22;11538;48.884;8.696;2024-01-30T00:20:04;4.40;99.90
22742;DHT22;11538;48.884;8.696;2024-01-30T00:22:32;4.40;99.90
22742;DHT22;11538;48.884;8.696;2024-01-30T00:25:00;4.30;99.90
22742;DHT22;11538;48.884;8.696;2024-01-30T00:27:27;4.40;99.90
22742;DHT22;11538;48.884;8.696;2024-01-30T00:29:54;4.30;99.90
22742;DHT22;11538;48.884;8.696;2024-01-30T00:32:21;4.30;99.90
22742;DHT22;11538;48.884;8.696;2024-01-30T00:34:49;4.30;99.90
22742;DHT22;11538;48.884;8.696;2024-01-30T00:37:16;4.30;99.90
22742;DHT22;11538;48.884;8.696;2024-01-30T00:39:43;4.30;99.90
22742;DHT22;11538;48.884;8.696;2024-01-30T00:42:10;4.30;99.90
22742;DHT22;11538;48.884;8.696;2024-01-30T00:44:37;4.30;99.90
22742;DHT22;11538;48.884;8.696;2024-01-30T00:47:05;4.20;99.90
22742;DHT22;11538;48.884;8.696;2024-01-30T00:49:33;4.20;99.90
22742;DHT22;11538;48.884;8.696;2024-01-30T00:52:00;4.10;99.90
22742;DHT22;11538;48.884;8.696;2024-01-30T00:54:27;4.10;99.90
22742;DHT22;11538;48.884;8.696;2024-01-30T00:56:54;4.10;99.90
22742;DHT22;11538;48.884;8.696;2024-01-30T00:59:21;4.10;99.90
22742;DHT22;11538;48.884;8.696;2024-01-30T01:01:48;4.10;99.90
22742;DHT22;11538;48.884;8.696;2024-01-30T01:04:16;4.20;99.90
22742;DHT22;11538;48.884;8.696;2024-01-30T01:06:44;4.10;99.90
22742;DHT22;11538;48.884;8.696;2024-01-30T01:09:11;4.10;99.90
22742;DHT22;11538;48.884;8.696;2024-01-30T01:11:39;4.10;99.90
22742;DHT22;11538;48.884;8.696;2024-01-30T01:14:06;4.20;99.90
22742;DHT22;11538;48.884;8.696;2024-01-30T01:16:34;4.20;99.90
22742;DHT22;11538;48.884;8.696;2024-01-30T01:19:01;4.20;99.90
22742;DHT22;11538;48.884;8.696;2024-01-30T01:21:28;4.20;99.90
22742;DHT22;11538;48.884;8.696;2024-01-30T01:23:55;4.20;99.90
22742;DHT22;11538;48.884;8.696;2024-01-30T01:26:23;4.20;99.90
22742;DHT22;11538;48.884;8.696;2024-01-30T01:28:50;4.20;99.90
22742;DHT22;11538;48.884;8.696;2024-01-30T01:31:17;4.10;99.90
22742;DHT22;11538;48.884;8.696;2024-01-30T01:33:45;4.00;99.90
22742;DHT22;11538;48.884;8.696;2024-01-30T01:36:13;4.00;99.90
22742;DHT22;11538;48.884;8.696;2024-01-30T01:38:40;4.00;99.90
22742;DHT22;11538;48.884;8.696;2024-01-30T01:41:07;3.90;99.90
22742;DHT22;11538;48.884;8.696;2024-01-30T01:43:34;3.90;99.90
22742;DHT22;11538;48.884;8.696;2024-01-30T01:46:02;3.90;99.90
22742;DHT22;11538;48.884;8.696;2024-01-30T01:48:30;3.90;99.90
22742;DHT22;11538;48.884;8.696;2024-01-30T01:50:57;3.90;99.90
22742;DHT22;11538;48.884;8.696;2024-01-30T01:53:26;3.90;99.90
22742;DHT22;11538;48.884;8.696;2024-01-30T01:55:53;3.80;99.90
22742;DHT22;11538;48.884;8.696;2024-01-30T01:58:21;3.80;99.90
22742;DHT22;11538;48.884;8.696;2024-01-30T02:00:50;3.80;99.90
22742;DHT22;11538;48.884;8.696;2024-01-30T02:03:18;3.90;99.90
22742;DHT22;11538;48.884;8.696;2024-01-30T02:05:49;3.90;99.90
22742;DHT22;11538;48.884;8.696;2024-01-30T02:08:17;3.80;99.90
22742;DHT22;11538;48.884;8.696;2024-01-30T02:10:44;3.80;99.90
22742;DHT22;11538;48.884;8.696;2024-01-30T02:13:11;3.80;99.90
22742;DHT22;11538;48.884;8.696;2024-01-30T02:15:38;3.70;99.90
22742;DHT22;11538;48.884;8.696;2024-01-30T02:18:05;3.70;99.90
22742;DHT22;11538;48.884;8.696;2024-01-30T02:20:35;3.70;99.90
22742;DHT22;11538;48.884;8.696;2024-01-30T02:23:04;3.70;99.90
22742;DHT22;11538;48.884;8.696;2024-01-30T02:25:38;3.60;99.90
22742;DHT22;11538;48.884;8.696;2024-01-30T02:28:11;3.60;99.90
22742;DHT22;11538;48.884;8.696;2024-01-30T02:30:46;3.60;99.90
22742;DHT22;11538;48.884;8.696;2024-01-30T02:33:13;3.60;99.90
22742;DHT22;11538;48.884;8.696;2024-01-30T02:35:40;3.60;99.90
22742;DHT22;11538;48.884;8.696;2024-01-30T02:38:07;3.60;99.90
22742;DHT22;11538;48.884;8.696;2024-01-30T02:40:38;3.60;99.90
22742;DHT22;11538;48.884;8.696;2024-01-30T02:43:05;3.70;99.90
22742;DHT22;11538;48.884;8.696;2024-01-30T02:45:32;3.70;99.90
22742;DHT22;11538;48.884;8.696;2024-01-30T02:47:59;3.70;99.90
22742;DHT22;11538;48.884;8.696;2024-01-30T02:50:26;3.70;99.90
22742;DHT22;11538;48.884;8.696;2024-01-30T02:52:53;3.70;99.90
22742;DHT22;11538;48.884;8.696;2024-01-30T02:55:19;3.70;99.90
22742;DHT22;11538;48.884;8.696;2024-01-30T02:57:47;3.70;99.90
22742;DHT22;11538;48.884;8.696;2024-01-30T03:00:14;3.70;99.90
22742;DHT22;11538;48.884;8.696;2024-01-30T03:02:41;3.70;99.90
22742;DHT22;11538;48.884;8.696;2024-01-30T03:05:08;3.70;99.90
22742;DHT22;11538;48.884;8.696;2024-01-30T03:07:35;3.70;99.90
22742;DHT22;11538;48.884;8.696;2024-01-30T03:10:04;3.70;99.90
22742;DHT22;11538;48.884;8.696;2024-01-30T03:12:32;3.70;99.90
22742;DHT22;11538;48.884;8.696;2024-01-30T03:14:59;3.70;99.90
22742;DHT22;11538;48.884;8.696;2024-01-30T03:17:27;3.70;99.90
22742;DHT22;11538;48.884;8.696;2024-01-30T03:19:54;3.70;99.90
22742;DHT22;11538;48.884;8.696;2024-01-30T03:22:21;3.70;99.90
22742;DHT22;11538;48.884;8.696;2024-01-30T03:24:48;3.70;99.90
22742;DHT22;11538;48.884;8.696;2024-01-30T03:27:15;3.70;99.90
22742;DHT22;11538;48.884;8.696;2024-01-30T03:29:42;3.70;99.90
22742;DHT22;11538;48.884;8.696;2024-01-30T03:32:08;3.70;99.90
22742;DHT22;11538;48.884;8.696;2024-01-30T03:34:35;3.70;99.90
22742;DHT22;11538;48.884;8.696;2024-01-30T03:37:03;3.70;99.90
22742;DHT22;11538;48.884;8.696;2024-01-30T03:39:30;3.70;99.90
22742;DHT22;11538;48.884;8.696;2024-01-30T03:41:57;3.70;99.90
22742;DHT22;11538;48.884;8.696;2024-01-30T03:44:24;3.70;99.90
22742;DHT22;11538;48.884;8.696;2024-01-30T03:46:51;3.70;99.90
22742;DHT22;11538;48.884;8.696;2024-01-30T03:49:18;3.60;99.90
22742;DHT22;11538;48.884;8.696;2024-01-30T03:51:45;3.60;99.90
22742;DHT22;11538;48.884;8.696;2024-01-30T03:54:14;3.60;99.90
22742;DHT22;11538;48.884;8.696;2024-01-30T03:56:41;3.60;99.90
22742;DHT22;11538;48.884;8.696;2024-01-30T03:59:08;3.60;99.90
22742;DHT22;11538;48.884;8.696;2024-01-30T04:01:35;3.60;99.90
22742;DHT22;11538;48.884;8.696;2024-01-30T04:04:02;3.50;99.90
22742;DHT22;11538;48.884;8.696;2024-01-30T04:06:29;3.50;99.90
22742;DHT22;11538;48.884;8.696;2024-01-30T04:08:56;3.50;99.90
22742;DHT22;11538;48.884;8.696;2024-01-30T04:11:23;3.50;99.90
22742;DHT22;11538;48.884;8.696;2024-01-30T04:13:50;3.50;99.90
22742;DHT22;11538;48.884;8.696;2024-01-30T04:16:20;3.40;99.90
22742;DHT22;11538;48.884;8.696;2024-01-30T04:18:51;3.50;99.90
22742;DHT22;11538;48.884;8.696;2024-01-30T04:21:21;3.50;99.90
22742;DHT22;11538;48.884;8.696;2024-01-30T04:23:48;3.50;99.90
22742;DHT22;11538;48.884;8.696;2024-01-30T04:26:17;3.50;99.90
22742;DHT22;11538;48.884;8.696;2024-01-30T04:28:45;3.50;99.90
22742;DHT22;11538;48.884;8.696;2024-01-30T04:31:12;3.50;99.90
22742;DHT22;11538;48.884;8.696;2024-01-30T04:33:39;3.50;99.90
22742;DHT22;11538;48.884;8.696;2024-01-30T04:36:08;3.50;99.90
22742;DHT22;11538;48.884;8.696;2024-01-30T04:38:38;3.40;99.90
22742;DHT22;11538;48.884;8.696;2024-01-30T04:41:06;3.40;99.90
22742;DHT22;11538;48.884;8.696;2024-01-30T04:43:34;3.30;99.90
22742;DHT22;11538;48.884;8.696;2024-01-30T04:46:01;3.30;99.90
22742;DHT22;11538;48.884;8.696;2024-01-30T04:48:28;3.20;99.90
22742;DHT22;11538;48.884;8.696;2024-01-30T04:50:55;3.20;99.90
22742;DHT22;11538;48.884;8.696;2024-01-30T04:53:23;3.20;99.90
22742;DHT22;11538;48.884;8.696;2024-01-30T04:55:50;3.20;99.90
22742;DHT22;11538;48.884;8.696;2024-01-30T04:58:16;3.20;99.90
22742;DHT22;11538;48.884;8.696;2024-01-30T05:00:43;3.20;99.90
22742;DHT22;11538;48.884;8.696;2024-01-30T05:03:10;3.20;99.90
22742;DHT22;11538;48.884;8.696;2024-01-30T05:05:37;3.20;99.90
22742;DHT22;11538;48.884;8.696;2024-01-30T05:08:04;3.20;99.90
22742;DHT22;11538;48.884;8.696;2024-01-30T05:10:31;3.10;99.90
22742;DHT22;11538;48.884;8.696;2024-01-30T05:12:58;3.10;99.90
22742;DHT22;11538;48.884;8.696;2024-01-30T05:15:25;3.20;99.90
22742;DHT22;11538;48.884;8.696;2024-01-30T05:17:52;3.20;99.90
22742;DHT22;11538;48.884;8.696;2024-01-30T05:20:19;3.20;99.90
22742;DHT22;11538;48.884;8.696;2024-01-30T05:22:46;3.20;99.90
22742;DHT22;11538;48.884;8.696;2024-01-30T05:25:13;3.20;99.90
22742;DHT22;11538;48.884;8.696;2024-01-30T05:27:40;3.20;99.90
22742;DHT22;11538;48.884;8.696;2024-01-30T05:30:08;3.20;99.90
22742;DHT22;11538;48.884;8.696;2024-01-30T05:32:35;3.20;99.90
22742;DHT22;11538;48.884;8.696;2024-01-30T05:35:03;3.20;99.90
22742;DHT22;11538;48.884;8.696;2024-01-30T05:37:30;3.20;99.90
22742;DHT22;11538;48.884;8.696;2024-01-30T05:39:57;3.20;99.90
22742;DHT22;11538;48.884;8.696;2024-01-30T05:42:25;3.20;99.90
22742;DHT22;11538;48.884;8.696;2024-01-30T05:44:53;3.20;99.90
22742;DHT22;11538;48.884;8.696;2024-01-30T05:47:20;3.20;99.90
22742;DHT22;11538;48.884;8.696;2024-01-30T05:49:47;3.20;99.90
22742;DHT22;11538;48.884;8.696;2024-01-30T05:52:14;3.10;99.90
22742;DHT22;11538;48.884;8.696;2024-01-30T05:54:42;3.20;99.90
22742;DHT22;11538;48.884;8.696;2024-01-30T05:57:09;3.20;99.90
22742;DHT22;11538;48.884;8.696;2024-01-30T05:59:36;3.20;99.90
22742;DHT22;11538;48.884;8.696;2024-01-30T06:02:07;3.10;99.90
22742;DHT22;11538;48.884;8.696;2024-01-30T06:04:34;3.10;99.90
22742;DHT22;11538;48.884;8.696;2024-01-30T06:07:01;3.10;99.90
22742;DHT22;11538;48.884;8.696;2024-01-30T06:09:29;3.10;99.90
22742;DHT22;11538;48.884;8.696;2024-01-30T06:11:55;3.10;99.90
22742;DHT22;11538;48.884;8.696;2024-01-30T06:14:23;3.00;99.90
22742;DHT22;11538;48.884;8.696;2024-01-30T06:16:56;3.10;99.90
22742;DHT22;11538;48.884;8.696;2024-01-30T06:19:22;3.00;99.90
22742;DHT22;11538;48.884;8.696;2024-01-30T06:21:52;3.00;99.90
22742;DHT22;11538;48.884;8.696;2024-01-30T06:24:19;3.00;99.90
22742;DHT22;11538;48.884;8.696;2024-01-30T06:26:46;3.00;99.90
22742;DHT22;11538;48.884;8.696;2024-01-30T06:29:13;3.00;99.90
22742;DHT22;11538;48.884;8.696;2024-01-30T06:31:45;3.00;99.90
22742;DHT22;11538;48.884;8.696;2024-01-30T06:34:13;3.00;99.90
22742;DHT22;11538;48.884;8.696;2024-01-30T06:36:40;3.10;99.90
22742;DHT22;11538;48.884;8.696;2024-01-30T06:39:09;3.10;99.90
22742;DHT22;11538;48.884;8.696;2024-01-30T06:41:37;3.00;99.90
22742;DHT22;11538;48.884;8.696;2024-01-30T06:44:06;3.10;99.90
22742;DHT22;11538;48.884;8.696;2024-01-30T06:46:35;3.10;99.90
22742;DHT22;11538;48.884;8.696;2024-01-30T06:49:02;3.10;99.90
22742;DHT22;11538;48.884;8.696;2024-01-30T06:51:29;3.20;99.90
22742;DHT22;11538;48.884;8.696;2024-01-30T06:53:56;3.20;99.90
22742;DHT22;11538;48.884;8.696;2024-01-30T06:56:23;3.10;99.90
22742;DHT22;11538;48.884;8.696;2024-01-30T06:58:50;3.10;99.90
22742;DHT22;11538;48.884;8.696;2024-01-30T07:01:17;3.20;99.90
22742;DHT22;11538;48.884;8.696;2024-01-30T07:03:45;3.20;99.90
22742;DHT22;11538;48.884;8.696;2024-01-30T07:06:12;3.20;99.90
22742;DHT22;11538;48.884;8.696;2024-01-30T07:08:39;3.20;99.90
22742;DHT22;11538;48.884;8.696;2024-01-30T07:11:06;3.20;99.90
22742;DHT22;11538;48.884;8.696;2024-01-30T07:13:34;3.20;99.90
22742;DHT22;11538;48.884;8.696;2024-01-30T07:16:02;3.30;99.90
22742;DHT22;11538;48.884;8.696;2024-01-30T07:18:29;3.20;99.90
22742;DHT22;11538;48.884;8.696;2024-01-30T07:20:56;3.30;99.90
22742;DHT22;11538;48.884;8.696;2024-01-30T07:23:22;3.30;99.90
22742;DHT22;11538;48.884;8.696;2024-01-30T07:25:49;3.30;99.90
22742;DHT22;11538;48.884;8.696;2024-01-30T07:28:17;3.30;99.90
22742;DHT22;11538;48.884;8.696;2024-01-30T07:30:45;3.30;99.90
22742;DHT22;11538;48.884;8.696;2024-01-30T07:33:13;3.30;99.90
22742;DHT22;11538;48.884;8.696;2024-01-30T07:35:40;3.30;99.90
22742;DHT22;11538;48.884;8.696;2024-01-30T07:38:07;3.30;99.90
22742;DHT22;11538;48.884;8.696;2024-01-30T07:40:34;3.30;99.90
22742;DHT22;11538;48.884;8.696;2024-01-30T07:43:01;3.30;99.90
22742;DHT22;11538;48.884;8.696;2024-01-30T07:45:29;3.30;99.90
22742;DHT22;11538;48.884;8.696;2024-01-30T07:47:59;3.30;99.90
22742;DHT22;11538;48.884;8.696;2024-01-30T07:50:28;3.30;99.90
22742;DHT22;11538;48.884;8.696;2024-01-30T07:52:56;3.30;99.90
22742;DHT22;11538;48.884;8.696;2024-01-30T07:55:24;3.40;99.90
22742;DHT22;11538;48.884;8.696;2024-01-30T08:01:36;3.40;99.90
22742;DHT22;11538;48.884;8.696;2024-01-30T08:04:04;3.50;99.90
22742;DHT22;11538;48.884;8.696;2024-01-30T08:06:31;3.50;99.90
22742;DHT22;11538;48.884;8.696;2024-01-30T08:08:58;3.50;99.90
22742;DHT22;11538;48.884;8.696;2024-01-30T08:11:26;3.60;99.90
22742;DHT22;11538;48.884;8.696;2024-01-30T08:13:53;3.60;99.90
22742;DHT22;11538;48.884;8.696;2024-01-30T08:16:20;3.70;99.90
22742;DHT22;11538;48.884;8.696;2024-01-30T08:18:47;3.80;99.90
22742;DHT22;11538;48.884;8.696;2024-01-30T08:21:14;3.80;99.90
22742;DHT22;11538;48.884;8.696;2024-01-30T08:23:42;3.90;99.90
22742;DHT22;11538;48.884;8.696;2024-01-30T08:26:09;3.90;99.90
22742;DHT22;11538;48.884;8.696;2024-01-30T08:28:36;4.00;99.90
22742;DHT22;11538;48.884;8.696;2024-01-30T08:31:03;4.10;99.90
22742;DHT22;11538;48.884;8.696;2024-01-30T08:33:30;4.20;99.90
22742;DHT22;11538;48.884;8.696;2024-01-30T08:35:58;4.20;99.90
22742;DHT22;11538;48.884;8.696;2024-01-30T08:38:25;4.40;99.90
22742;DHT22;11538;48.884;8.696;2024-01-30T08:40:52;4.40;99.90
22742;DHT22;11538;48.884;8.696;2024-01-30T08:43:19;4.50;99.90
22742;DHT22;11538;48.884;8.696;2024-01-30T08:45:46;4.60;99.90
22742;DHT22;11538;48.884;8.696;2024-01-30T08:48:13;4.70;99.90
22742;DHT22;11538;48.884;8.696;2024-01-30T08:50:40;4.80;99.90
22742;DHT22;11538;48.884;8.696;2024-01-30T08:53:07;5.00;99.90
22742;DHT22;11538;48.884;8.696;2024-01-30T08:55:34;5.10;99.90
22742;DHT22;11538;48.884;8.696;2024-01-30T08:58:01;5.20;99.90
22742;DHT22;11538;48.884;8.696;2024-01-30T09:00:30;5.30;99.90
22742;DHT22;11538;48.884;8.696;2024-01-30T09:02:57;5.40;99.90
22742;DHT22;11538;48.884;8.696;2024-01-30T09:05:24;5.50;99.90
22742;DHT22;11538;48.884;8.696;2024-01-30T09:07:51;5.60;99.90
22742;DHT22;11538;48.884;8.696;2024-01-30T09:10:18;5.70;99.90
22742;DHT22;11538;48.884;8.696;2024-01-30T09:12:47;5.70;99.90
22742;DHT22;11538;48.884;8.696;2024-01-30T09:15:15;5.80;99.90
22742;DHT22;11538;48.884;8.696;2024-01-30T09:17:42;5.90;99.90
22742;DHT22;11538;48.884;8.696;2024-01-30T09:20:09;5.90;99.90
22742;DHT22;11538;48.884;8.696;2024-01-30T09:22:36;5.90;99.90
22742;DHT22;11538;48.884;8.696;2024-01-30T09:25:04;5.90;99.90
22742;DHT22;11538;48.884;8.696;2024-01-30T09:27:31;6.00;99.90
22742;DHT22;11538;48.884;8.696;2024-01-30T09:29:58;6.10;99.90
22742;DHT22;11538;48.884;8.696;2024-01-30T09:32:24;6.10;99.90
22742;DHT22;11538;48.884;8.696;2024-01-30T09:34:51;6.20;99.90
22742;DHT22;11538;48.884;8.696;2024-01-30T09:37:19;6.20;99.90
22742;DHT22;11538;48.884;8.696;2024-01-30T09:39:46;6.20;99.90
22742;DHT22;11538;48.884;8.696;2024-01-30T09:42:34;6.30;99.90
22742;DHT22;11538;48.884;8.696;2024-01-30T09:45:05;6.40;99.90
22742;DHT22;11538;48.884;8.696;2024-01-30T09:47:39;6.40;99.90
22742;DHT22;11538;48.884;8.696;2024-01-30T09:50:12;6.50;99.90
22742;DHT22;11538;48.884;8.696;2024-01-30T09:52:40;6.50;99.90
22742;DHT22;11538;48.884;8.696;2024-01-30T09:55:09;6.50;99.90
22742;DHT22;11538;48.884;8.696;2024-01-30T09:57:36;6.60;99.90
22742;DHT22;11538;48.884;8.696;2024-01-30T10:00:04;6.60;99.90
22742;DHT22;11538;48.884;8.696;2024-01-30T10:02:34;6.70;99.90
22742;DHT22;11538;48.884;8.696;2024-01-30T10:05:02;6.80;99.90
22742;DHT22;11538;48.884;8.696;2024-01-30T10:07:29;6.80;99.90
22742;DHT22;11538;48.884;8.696;2024-01-30T10:09:57;6.80;99.90
22742;DHT22;11538;48.884;8.696;2024-01-30T10:12:29;6.90;99.90
22742;DHT22;11538;48.884;8.696;2024-01-30T10:14:56;7.00;99.90
22742;DHT22;11538;48.884;8.696;2024-01-30T10:17:25;7.00;99.90
22742;DHT22;11538;48.884;8.696;2024-01-30T10:19:59;7.10;99.90
22742;DHT22;11538;48.884;8.696;2024-01-30T10:22:27;7.10;99.90
22742;DHT22;11538;48.884;8.696;2024-01-30T10:24:55;7.20;99.90
22742;DHT22;11538;48.884;8.696;2024-01-30T10:27:28;7.30;99.90
22742;DHT22;11538;48.884;8.696;2024-01-30T10:29:56;7.40;99.90
22742;DHT22;11538;48.884;8.696;2024-01-30T10:32:23;7.50;99.90
22742;DHT22;11538;48.884;8.696;2024-01-30T10:34:50;7.50;99.90
22742;DHT22;11538;48.884;8.696;2024-01-30T10:37:19;7.60;99.90
22742;DHT22;11538;48.884;8.696;2024-01-30T10:39:53;7.60;99.90
22742;DHT22;11538;48.884;8.696;2024-01-30T10:42:26;7.70;99.90
22742;DHT22;11538;48.884;8.696;2024-01-30T10:47:28;7.80;99.90
22742;DHT22;11538;48.884;8.696;2024-01-30T10:49:57;7.90;99.90
22742;DHT22;11538;48.884;8.696;2024-01-30T10:52:24;7.90;99.90
22742;DHT22;11538;48.884;8.696;2024-01-30T10:54:54;7.90;99.90
22742;DHT22;11538;48.884;8.696;2024-01-30T10:57:26;8.00;99.90
22742;DHT22;11538;48.884;8.696;2024-01-30T10:59:57;8.00;99.90
22742;DHT22;11538;48.884;8.696;2024-01-30T11:02:26;8.10;99.90
22742;DHT22;11538;48.884;8.696;2024-01-30T11:04:59;8.10;99.90
22742;DHT22;11538;48.884;8.696;2024-01-30T11:07:28;8.20;99.90
22742;DHT22;11538;48.884;8.696;2024-01-30T11:12:31;8.30;99.90
22742;DHT22;11538;48.884;8.696;2024-01-30T11:15:09;8.40;99.90
22742;DHT22;11538;48.884;8.696;2024-01-30T11:17:56;8.40;99.90
22742;DHT22;11538;48.884;8.696;2024-01-30T11:20:30;8.60;99.90
22742;DHT22;11538;48.884;8.696;2024-01-30T11:22:59;8.70;99.90
22742;DHT22;11538;48.884;8.696;2024-01-30T11:25:31;8.90;99.90
22742;DHT22;11538;48.884;8.696;2024-01-30T11:27:59;9.00;99.90
22742;DHT22;11538;48.884;8.696;2024-01-30T11:30:30;9.10;99.90
22742;DHT22;11538;48.884;8.696;2024-01-30T11:33:06;9.20;99.90
22742;DHT22;11538;48.884;8.696;2024-01-30T11:35:42;9.40;99.90
22742;DHT22;11538;48.884;8.696;2024-01-30T11:38:13;9.50;99.90
22742;DHT22;11538;48.884;8.696;2024-01-30T11:40:41;9.50;99.90
22742;DHT22;11538;48.884;8.696;2024-01-30T11:43:10;9.60;99.90
22742;DHT22;11538;48.884;8.696;2024-01-30T11:45:38;9.60;99.90
22742;DHT22;11538;48.884;8.696;2024-01-30T11:48:06;9.70;99.90
22742;DHT22;11538;48.884;8.696;2024-01-30T11:50:38;9.70;99.90
22742;DHT22;11538;48.884;8.696;2024-01-30T11:53:07;9.80;99.90
22742;DHT22;11538;48.884;8.696;2024-01-30T11:55:34;9.90;99.90
22742;DHT22;11538;48.884;8.696;2024-01-30T11:58:04;9.90;99.90
22742;DHT22;11538;48.884;8.696;2024-01-30T12:00:31;10.00;99.90
22742;DHT22;11538;48.884;8.696;2024-01-30T12:03:01;10.20;99.90
22742;DHT22;11538;48.884;8.696;2024-01-30T12:05:29;10.30;99.90
22742;DHT22;11538;48.884;8.696;2024-01-30T12:07:56;10.50;99.90
22742;DHT22;11538;48.884;8.696;2024-01-30T12:10:29;10.70;99.90
22742;DHT22;11538;48.884;8.696;2024-01-30T12:12:57;10.90;99.90
22742;DHT22;11538;48.884;8.696;2024-01-30T12:15:26;11.00;99.90
22742;DHT22;11538;48.884;8.696;2024-01-30T12:18:04;11.20;99.90
22742;DHT22;11538;48.884;8.696;2024-01-30T12:20:33;11.30;99.90
22742;DHT22;11538;48.884;8.696;2024-01-30T12:23:00;11.50;99.90
22742;DHT22;11538;48.884;8.696;2024-01-30T12:25:27;11.60;99.90
22742;DHT22;11538;48.884;8.696;2024-01-30T12:27:54;11.80;99.90
22742;DHT22;11538;48.884;8.696;2024-01-30T12:30:21;11.90;99.90
22742;DHT22;11538;48.884;8.696;2024-01-30T12:32:50;12.10;99.90
22742;DHT22;11538;48.884;8.696;2024-01-30T12:35:20;12.30;99.90
22742;DHT22;11538;48.884;8.696;2024-01-30T12:37:48;12.50;99.90
22742;DHT22;11538;48.884;8.696;2024-01-30T12:40:17;12.70;99.90
22742;DHT22;11538;48.884;8.696;2024-01-30T12:42:48;12.90;99.90
22742;DHT22;11538;48.884;8.696;2024-01-30T12:45:18;13.10;99.90
22742;DHT22;11538;48.884;8.696;2024-01-30T12:47:49;13.30;99.90
22742;DHT22;11538;48.884;8.696;2024-01-30T12:50:32;13.40;99.90
22742;DHT22;11538;48.884;8.696;2024-01-30T12:52:59;13.60;99.90
22742;DHT22;11538;48.884;8.696;2024-01-30T12:55:26;13.70;99.90
22742;DHT22;11538;48.884;8.696;2024-01-30T12:57:55;13.80;99.90
22742;DHT22;11538;48.884;8.696;2024-01-30T13:00:24;13.80;99.90
22742;DHT22;11538;48.884;8.696;2024-01-30T13:02:52;13.80;99.90
22742;DHT22;11538;48.884;8.696;2024-01-30T13:05:19;13.90;99.90
22742;DHT22;11538;48.884;8.696;2024-01-30T13:07:47;14.00;99.90
22742;DHT22;11538;48.884;8.696;2024-01-30T13:10:14;14.10;99.90
22742;DHT22;11538;48.884;8.696;2024-01-30T13:12:41;14.00;99.90
22742;DHT22;11538;48.884;8.696;2024-01-30T13:15:08;14.10;99.90
22742;DHT22;11538;48.884;8.696;2024-01-30T13:17:37;14.10;99.90
22742;DHT22;11538;48.884;8.696;2024-01-30T13:20:05;14.00;99.90
22742;DHT22;11538;48.884;8.696;2024-01-30T13:22:38;14.00;99.90
22742;DHT22;11538;48.884;8.696;2024-01-30T13:25:06;14.00;99.90
22742;DHT22;11538;48.884;8.696;2024-01-30T13:27:34;13.90;99.90
22742;DHT22;11538;48.884;8.696;2024-01-30T13:30:02;13.80;99.90
22742;DHT22;11538;48.884;8.696;2024-01-30T13:32:29;13.80;99.90
22742;DHT22;11538;48.884;8.696;2024-01-30T13:34:56;13.80;99.90
22742;DHT22;11538;48.884;8.696;2024-01-30T13:37:23;13.80;99.90
22742;DHT22;11538;48.884;8.696;2024-01-30T13:39:50;13.80;99.90
22742;DHT22;11538;48.884;8.696;2024-01-30T13:42:17;13.70;99.90
22742;DHT22;11538;48.884;8.696;2024-01-30T13:44:47;13.80;99.90
22742;DHT22;11538;48.884;8.696;2024-01-30T13:47:15;13.80;99.90
22742;DHT22;11538;48.884;8.696;2024-01-30T13:49:45;13.80;99.90
22742;DHT22;11538;48.884;8.696;2024-01-30T13:52:14;13.80;99.90
22742;DHT22;11538;48.884;8.696;2024-01-30T13:54:42;13.70;99.90
22742;DHT22;11538;48.884;8.696;2024-01-30T13:57:09;13.70;99.90
22742;DHT22;11538;48.884;8.696;2024-01-30T13:59:38;13.70;99.90
22742;DHT22;11538;48.884;8.696;2024-01-30T14:02:05;13.60;99.90
22742;DHT22;11538;48.884;8.696;2024-01-30T14:04:35;13.50;99.90
22742;DHT22;11538;48.884;8.696;2024-01-30T14:07:06;13.40;99.90
22742;DHT22;11538;48.884;8.696;2024-01-30T14:09:35;13.30;99.90
22742;DHT22;11538;48.884;8.696;2024-01-30T14:12:02;13.30;99.90
22742;DHT22;11538;48.884;8.696;2024-01-30T14:14:30;13.20;99.90
22742;DHT22;11538;48.884;8.696;2024-01-30T14:16:56;13.10;99.90
22742;DHT22;11538;48.884;8.696;2024-01-30T14:19:25;13.10;99.90
22742;DHT22;11538;48.884;8.696;2024-01-30T14:21:52;13.00;99.90
22742;DHT22;11538;48.884;8.696;2024-01-30T14:24:19;13.00;99.90
22742;DHT22;11538;48.884;8.696;2024-01-30T14:26:46;13.00;99.90
22742;DHT22;11538;48.884;8.696;2024-01-30T14:29:13;12.90;99.90
22742;DHT22;11538;48.884;8.696;2024-01-30T14:31:40;12.80;99.90
22742;DHT22;11538;48.884;8.696;2024-01-30T14:34:07;12.80;99.90
22742;DHT22;11538;48.884;8.696;2024-01-30T14:36:35;12.70;99.90
22742;DHT22;11538;48.884;8.696;2024-01-30T14:39:02;12.60;99.90
22742;DHT22;11538;48.884;8.696;2024-01-30T14:41:30;12.60;99.90
22742;DHT22;11538;48.884;8.696;2024-01-30T14:43:57;12.50;99.90
22742;DHT22;11538;48.884;8.696;2024-01-30T14:46:25;12.40;99.90
22742;DHT22;11538;48.884;8.696;2024-01-30T14:48:56;12.40;99.90
22742;DHT22;11538;48.884;8.696;2024-01-30T14:51:26;12.30;99.90
22742;DHT22;11538;48.884;8.696;2024-01-30T14:53:53;12.30;99.90
22742;DHT22;11538;48.884;8.696;2024-01-30T14:56:20;12.20;99.90
22742;DHT22;11538;48.884;8.696;2024-01-30T14:58:47;12.20;99.90
22742;DHT22;11538;48.884;8.696;2024-01-30T15:01:15;12.10;99.90
22742;DHT22;11538;48.884;8.696;2024-01-30T15:03:45;12.00;99.90
22742;DHT22;11538;48.884;8.696;2024-01-30T15:06:13;11.90;99.90
22742;DHT22;11538;48.884;8.696;2024-01-30T15:08:40;11.90;99.90
22742;DHT22;11538;48.884;8.696;2024-01-30T15:11:07;11.80;99.90
22742;DHT22;11538;48.884;8.696;2024-01-30T15:13:33;11.80;99.90
22742;DHT22;11538;48.884;8.696;2024-01-30T15:16:02;11.70;99.90
22742;DHT22;11538;48.884;8.696;2024-01-30T15:18:31;11.60;99.90
22742;DHT22;11538;48.884;8.696;2024-01-30T15:20:58;11.50;99.90
22742;DHT22;11538;48.884;8.696;2024-01-30T15:23:25;11.50;99.90
22742;DHT22;11538;48.884;8.696;2024-01-30T15:25:52;11.40;99.90
22742;DHT22;11538;48.884;8.696;2024-01-30T15:28:22;11.30;99.90
22742;DHT22;11538;48.884;8.696;2024-01-30T15:31:04;11.30;99.90
22742;DHT22;11538;48.884;8.696;2024-01-30T15:33:34;11.20;99.90
22742;DHT22;11538;48.884;8.696;2024-01-30T15:36:03;11.10;99.90
22742;DHT22;11538;48.884;8.696;2024-01-30T15:38:30;11.10;99.90
22742;DHT22;11538;48.884;8.696;2024-01-30T15:40:58;11.10;99.90
22742;DHT22;11538;48.884;8.696;2024-01-30T15:43:25;11.00;99.90
22742;DHT22;11538;48.884;8.696;2024-01-30T15:45:52;10.90;99.90
22742;DHT22;11538;48.884;8.696;2024-01-30T15:48:20;10.90;99.90
22742;DHT22;11538;48.884;8.696;2024-01-30T15:50:47;10.90;99.90
22742;DHT22;11538;48.884;8.696;2024-01-30T15:53:14;10.80;99.90
22742;DHT22;11538;48.884;8.696;2024-01-30T15:55:41;10.80;99.90